Time;durP1;ratioP1;P1;durP2;ratioP2;P2;SDS_P1;SDS_P2;PMS_P1;PMS_P2;Temp;Humidity;BMP_temperature;BMP_pressure;BME280_temperature;BME280_humidity;BME280_pressure;Samples;Min_cycle;Max_cycle;Signal;HPM_P1;HPM_P2
2021/10/02 00:02:05;;;;;;;;;;;22.90;48.80;;;;;;1553961;74;1625;-73
2021/10/02 00:45:14;;;;;;;;;;;22.90;48.50;;;;;;1505644;75;1086;-74
2021/10/02 00:47:18;;;;;;;;;;;23.00;48.50;;;;;;1574228;74;677;-73
2021/10/02 00:49:20;;;;;;;;;;;22.90;48.60;;;;;;1570911;74;1900;-73
2021/10/02 00:51:22;;;;;;;;;;;23.00;48.80;;;;;;1566691;74;671;-75
2021/10/02 00:53:24;;;;;;;;;;;22.90;48.90;;;;;;1585104;74;722;-73
2021/10/02 00:55:26;;;;;;;;;;;22.90;49.00;;;;;;1569294;74;732;-74
2021/10/02 00:57:27;;;;;;;;;;;22.90;49.00;;;;;;1581859;73;711;-75
2021/10/02 00:59:34;;;;;;;;;;;22.90;49.20;;;;;;1591733;70;228092;-73
2021/10/02 01:01:40;;;;;;;;;;;22.90;49.20;;;;;;1612318;73;987;-73
2021/10/02 01:03:47;;;;;;;;;;;23.00;49.20;;;;;;1605172;73;1879;-72
2021/10/02 01:05:59;;;;;;;;;;;23.00;49.30;;;;;;1606866;73;785;-72
2021/10/02 01:08:21;;;;;;;;;;;22.90;49.30;;;;;;1607658;73;1932;-73
2021/10/02 01:10:27;;;;;;;;;;;22.90;49.30;;;;;;1630596;71;1225;-73
2021/10/02 01:12:46;;;;;;;;;;;22.90;49.20;;;;;;1634088;71;729;-75
2021/10/02 01:14:54;;;;;;;;;;;23.00;49.20;;;;;;1631016;71;2065;-73
2021/10/02 01:16:58;;;;;;;;;;;22.90;49.10;;;;;;1616987;71;785;-73
2021/10/02 01:19:07;;;;;;;;;;;22.90;49.20;;;;;;1632022;72;1133;-73
2021/10/02 01:21:17;;;;;;;;;;;23.00;49.10;;;;;;1633401;72;769;-72
2021/10/02 01:23:20;;;;;;;;;;;22.90;49.20;;;;;;1584082;73;727;-73
2021/10/02 01:25:36;;;;;;;;;;;23.00;49.10;;;;;;1589264;74;718;-73
2021/10/02 01:27:47;;;;;;;;;;;22.90;49.10;;;;;;1581317;73;1683;-72
2021/10/02 01:29:49;;;;;;;;;;;23.00;49.10;;;;;;1584863;74;1937;-73
2021/10/02 01:32:13;;;;;;;;;;;23.00;49.10;;;;;;1582049;72;701;-72
2021/10/02 01:34:16;;;;;;;;;;;22.90;49.10;;;;;;1620612;72;1677;-73
2021/10/02 01:47:51;;;;;;;;;;;22.90;49.20;;;;;;1618634;71;1639;-74
2021/10/02 01:49:53;;;;;;;;;;;23.00;49.20;;;;;;1631421;71;1929;-72
2021/10/02 01:51:56;;;;;;;;;;;22.90;49.10;;;;;;1633004;71;705;-73
2021/10/02 01:53:58;;;;;;;;;;;22.90;49.20;;;;;;1634015;72;767;-73
2021/10/02 01:56:02;;;;;;;;;;;23.00;49.30;;;;;;1626798;72;734;-72
2021/10/02 01:58:05;;;;;;;;;;;23.00;49.30;;;;;;1621463;72;766;-73
2021/10/02 02:00:08;;;;;;;;;;;23.00;49.40;;;;;;1634359;72;1112;-75
2021/10/02 02:02:09;;;;;;;;;;;23.00;49.40;;;;;;1613819;72;655;-73
2021/10/02 02:04:12;;;;;;;;;;;23.00;49.50;;;;;;1635213;71;662;-72
2021/10/02 02:06:14;;;;;;;;;;;23.00;49.50;;;;;;1627300;71;805;-72
2021/10/02 02:08:16;;;;;;;;;;;23.00;49.50;;;;;;1622615;72;1937;-71
2021/10/02 02:10:18;;;;;;;;;;;23.00;49.40;;;;;;1620264;72;1114;-73
2021/10/02 02:12:20;;;;;;;;;;;23.00;49.50;;;;;;1628160;72;760;-72
2021/10/02 02:14:24;;;;;;;;;;;23.00;49.40;;;;;;1633989;71;792;-72
2021/10/02 02:16:26;;;;;;;;;;;23.00;49.40;;;;;;1628949;72;723;-73
2021/10/02 02:18:27;;;;;;;;;;;23.00;49.40;;;;;;1633944;72;1163;-73
2021/10/02 02:20:31;;;;;;;;;;;23.00;49.40;;;;;;1634418;72;818;-72
2021/10/02 02:22:33;;;;;;;;;;;23.00;49.40;;;;;;1634801;71;804;-72
2021/10/02 02:24:35;;;;;;;;;;;23.00;49.50;;;;;;1621265;72;714;-72
2021/10/02 02:26:36;;;;;;;;;;;23.00;49.50;;;;;;1626797;72;702;-73
2021/10/02 02:28:39;;;;;;;;;;;23.00;49.60;;;;;;1627106;71;1936;-72
2021/10/02 02:30:41;;;;;;;;;;;23.00;49.60;;;;;;1621501;72;730;-72
2021/10/02 02:32:44;;;;;;;;;;;23.00;49.60;;;;;;1615168;72;703;-71
2021/10/02 02:34:47;;;;;;;;;;;23.00;49.60;;;;;;1620800;72;657;-72
2021/10/02 02:36:48;;;;;;;;;;;23.00;49.70;;;;;;1621869;72;791;-73
2021/10/02 02:38:50;;;;;;;;;;;22.90;49.70;;;;;;1620732;72;1137;-72
2021/10/02 02:40:52;;;;;;;;;;;23.00;49.70;;;;;;1633326;72;956;-72
2021/10/02 02:42:54;;;;;;;;;;;23.00;49.70;;;;;;1634836;72;772;-73
2021/10/02 02:44:56;;;;;;;;;;;23.00;49.60;;;;;;1625275;72;802;-72
2021/10/02 02:46:59;;;;;;;;;;;23.00;49.70;;;;;;1627838;71;795;-73
2021/10/02 02:49:06;;;;;;;;;;;23.00;49.70;;;;;;1611987;71;1936;-72
2021/10/02 02:51:13;;;;;;;;;;;23.00;49.80;;;;;;1621795;71;655;-72
2021/10/02 02:53:23;;;;;;;;;;;22.90;49.80;;;;;;1620239;72;740;-73
2021/10/02 02:55:29;;;;;;;;;;;23.00;49.80;;;;;;1618104;72;1698;-72
2021/10/02 02:57:33;;;;;;;;;;;23.00;49.90;;;;;;1624271;71;735;-72
2021/10/02 02:59:36;;;;;;;;;;;23.00;49.90;;;;;;1628238;72;1083;-71
2021/10/02 03:01:39;;;;;;;;;;;22.90;49.90;;;;;;1630934;72;679;-72
2021/10/02 03:03:41;;;;;;;;;;;22.90;49.90;;;;;;1627651;72;748;-72
2021/10/02 03:05:43;;;;;;;;;;;22.90;49.90;;;;;;1615309;72;686;-72
2021/10/02 03:07:59;;;;;;;;;;;23.00;49.90;;;;;;1624812;72;648;-72
2021/10/02 03:10:01;;;;;;;;;;;23.00;50.00;;;;;;1633622;72;1927;-73
2021/10/02 03:12:02;;;;;;;;;;;23.00;49.90;;;;;;1635108;71;737;-72
2021/10/02 03:14:04;;;;;;;;;;;22.90;50.00;;;;;;1625671;72;771;-73
2021/10/02 03:16:08;;;;;;;;;;;22.90;50.00;;;;;;1622334;71;736;-73
2021/10/02 03:18:10;;;;;;;;;;;23.00;50.10;;;;;;1626458;72;1903;-73
2021/10/02 03:20:13;;;;;;;;;;;22.90;50.00;;;;;;1636288;71;1117;-73
2021/10/02 03:22:15;;;;;;;;;;;23.00;50.00;;;;;;1633662;72;687;-73
2021/10/02 03:24:17;;;;;;;;;;;22.90;49.90;;;;;;1636606;72;736;-72
2021/10/02 03:26:18;;;;;;;;;;;23.00;49.80;;;;;;1624462;72;769;-72
2021/10/02 03:28:20;;;;;;;;;;;23.00;49.90;;;;;;1614461;72;809;-71
2021/10/02 03:30:22;;;;;;;;;;;23.00;49.90;;;;;;1622481;71;2169;-71
2021/10/02 03:32:24;;;;;;;;;;;23.00;49.90;;;;;;1617415;72;671;-72
2021/10/02 03:34:26;;;;;;;;;;;23.00;49.80;;;;;;1636549;71;781;-73
2021/10/02 03:36:28;;;;;;;;;;;23.00;49.90;;;;;;1635592;71;806;-73
2021/10/02 03:38:30;;;;;;;;;;;23.00;49.90;;;;;;1621997;71;1127;-72
2021/10/02 03:40:32;;;;;;;;;;;22.90;49.90;;;;;;1601287;74;838;-70
2021/10/02 03:42:35;;;;;;;;;;;22.90;49.90;;;;;;1627003;72;723;-72
2021/10/02 03:44:39;;;;;;;;;;;22.90;49.90;;;;;;1626960;72;2038;-72
2021/10/02 03:46:41;;;;;;;;;;;22.90;50.10;;;;;;1619820;71;1840;-73
2021/10/02 03:48:43;;;;;;;;;;;22.90;50.10;;;;;;1622261;71;1944;-72
2021/10/02 03:50:45;;;;;;;;;;;22.90;50.10;;;;;;1629258;72;726;-73
2021/10/02 03:52:46;;;;;;;;;;;22.90;50.10;;;;;;1633418;72;779;-72
2021/10/02 03:54:48;;;;;;;;;;;23.00;50.10;;;;;;1620755;72;806;-73
2021/10/02 03:56:50;;;;;;;;;;;22.90;50.10;;;;;;1618138;72;805;-72
2021/10/02 03:58:52;;;;;;;;;;;23.00;50.00;;;;;;1628261;71;1150;-71
2021/10/02 04:00:54;;;;;;;;;;;23.00;50.00;;;;;;1628311;72;760;-71
2021/10/02 04:02:56;;;;;;;;;;;23.00;50.00;;;;;;1637170;72;687;-72
2021/10/02 04:04:58;;;;;;;;;;;23.00;50.00;;;;;;1621090;72;825;-72
2021/10/02 04:06:59;;;;;;;;;;;23.00;50.10;;;;;;1621870;71;881;-73
2021/10/02 04:09:02;;;;;;;;;;;22.90;50.10;;;;;;1634672;72;1936;-72
2021/10/02 04:11:05;;;;;;;;;;;22.90;50.10;;;;;;1635127;72;736;-73
2021/10/02 04:13:07;;;;;;;;;;;22.90;50.10;;;;;;1622840;72;716;-73
2021/10/02 04:15:09;;;;;;;;;;;23.00;50.10;;;;;;1621439;71;801;-74
2021/10/02 04:17:11;;;;;;;;;;;23.00;50.10;;;;;;1621921;72;771;-73
2021/10/02 04:19:12;;;;;;;;;;;22.90;50.10;;;;;;1630575;72;1159;-74
2021/10/02 04:21:14;;;;;;;;;;;23.00;50.00;;;;;;1634067;72;813;-70
2021/10/02 04:23:16;;;;;;;;;;;23.00;50.00;;;;;;1625397;72;803;-72
2021/10/02 04:25:18;;;;;;;;;;;22.90;50.10;;;;;;1622143;72;808;-73
2021/10/02 04:27:20;;;;;;;;;;;23.00;50.00;;;;;;1634611;71;783;-72
2021/10/02 04:29:22;;;;;;;;;;;23.00;50.00;;;;;;1633754;71;1955;-72
2021/10/02 04:31:24;;;;;;;;;;;23.00;50.00;;;;;;1629995;72;724;-72
2021/10/02 04:33:26;;;;;;;;;;;22.90;50.00;;;;;;1620665;72;698;-71
2021/10/02 04:35:28;;;;;;;;;;;22.90;50.00;;;;;;1621805;72;768;-72
2021/10/02 04:37:29;;;;;;;;;;;22.90;50.10;;;;;;1611861;72;787;-72
2021/10/02 04:39:31;;;;;;;;;;;23.00;50.20;;;;;;1602007;74;1113;-71
2021/10/02 04:41:33;;;;;;;;;;;23.00;50.20;;;;;;1569925;75;774;-72
2021/10/02 04:43:38;;;;;;;;;;;23.00;50.10;;;;;;1598474;74;758;-72
2021/10/02 04:45:39;;;;;;;;;;;23.00;50.20;;;;;;1607083;74;1670;-73
2021/10/02 04:47:41;;;;;;;;;;;23.00;50.10;;;;;;1609304;72;762;-72
2021/10/02 04:49:42;;;;;;;;;;;23.00;50.20;;;;;;1608125;72;1941;-72
2021/10/02 04:51:44;;;;;;;;;;;23.00;50.20;;;;;;1606116;74;717;-73
2021/10/02 04:53:46;;;;;;;;;;;23.00;50.30;;;;;;1608789;72;727;-73
2021/10/02 04:55:48;;;;;;;;;;;23.00;50.20;;;;;;1608822;72;731;-72
2021/10/02 04:57:50;;;;;;;;;;;23.00;50.30;;;;;;1607188;74;807;-71
2021/10/02 04:59:52;;;;;;;;;;;23.00;50.30;;;;;;1608250;72;1111;-71
2021/10/02 05:01:54;;;;;;;;;;;23.00;50.30;;;;;;1610364;72;793;-72
2021/10/02 05:03:58;;;;;;;;;;;23.00;50.30;;;;;;1609864;74;723;-71
2021/10/02 05:06:01;;;;;;;;;;;23.00;50.30;;;;;;1598688;74;1489;-72
2021/10/02 05:08:03;;;;;;;;;;;23.00;50.20;;;;;;1602356;74;1659;-73
2021/10/02 05:10:05;;;;;;;;;;;23.10;50.30;;;;;;1564176;73;1957;-71
2021/10/02 05:12:07;;;;;;;;;;;23.00;50.20;;;;;;1606026;74;719;-72
2021/10/02 05:14:09;;;;;;;;;;;23.00;50.20;;;;;;1609389;74;765;-71
2021/10/02 05:16:10;;;;;;;;;;;23.00;50.30;;;;;;1577837;74;806;-69
2021/10/02 05:18:12;;;;;;;;;;;23.00;50.30;;;;;;1590084;72;721;-68
2021/10/02 05:20:14;;;;;;;;;;;23.00;50.20;;;;;;1602943;74;1147;-68
2021/10/02 05:22:16;;;;;;;;;;;23.10;50.20;;;;;;1598862;74;708;-69
2021/10/02 05:24:18;;;;;;;;;;;23.10;50.10;;;;;;1600275;73;732;-66
2021/10/02 05:26:20;;;;;;;;;;;23.10;50.20;;;;;;1602243;72;724;-70
2021/10/02 05:28:22;;;;;;;;;;;23.10;50.10;;;;;;1598732;74;682;-69
2021/10/02 05:30:24;;;;;;;;;;;23.10;50.10;;;;;;1602153;74;1930;-68
2021/10/02 05:32:26;;;;;;;;;;;23.10;50.10;;;;;;1602231;74;753;-69
2021/10/02 05:34:28;;;;;;;;;;;23.10;50.00;;;;;;1602182;72;766;-69
2021/10/02 05:36:30;;;;;;;;;;;23.10;50.00;;;;;;1599858;72;819;-69
2021/10/02 05:38:31;;;;;;;;;;;23.00;49.80;;;;;;1602144;74;1142;-68
2021/10/02 05:40:33;;;;;;;;;;;23.00;49.70;;;;;;1602536;74;800;-68
2021/10/02 05:42:35;;;;;;;;;;;23.00;49.70;;;;;;1602554;74;733;-68
2021/10/02 05:44:37;;;;;;;;;;;22.90;49.60;;;;;;1602453;72;743;-68
2021/10/02 05:46:39;;;;;;;;;;;23.00;49.60;;;;;;1602414;74;797;-69
2021/10/02 05:48:41;;;;;;;;;;;23.00;49.50;;;;;;1601854;74;1100;-69
2021/10/02 05:50:45;;;;;;;;;;;23.00;49.40;;;;;;1605879;72;1940;-69
2021/10/02 05:52:46;;;;;;;;;;;22.90;49.40;;;;;;1602316;72;1692;-67
2021/10/02 05:54:48;;;;;;;;;;;23.00;49.30;;;;;;1602080;72;887;-68
2021/10/02 05:56:50;;;;;;;;;;;22.90;49.30;;;;;;1602289;73;767;-66
2021/10/02 05:58:52;;;;;;;;;;;22.90;49.20;;;;;;1602389;73;1165;-68
2021/10/02 06:00:54;;;;;;;;;;;22.90;49.10;;;;;;1602258;74;923;-68
2021/10/02 06:03:01;;;;;;;;;;;22.90;49.00;;;;;;1602067;72;868;-67
2021/10/02 06:05:02;;;;;;;;;;;22.90;49.10;;;;;;1599038;74;1659;-68
2021/10/02 06:07:04;;;;;;;;;;;22.90;49.00;;;;;;1602454;74;779;-69
2021/10/02 06:09:06;;;;;;;;;;;22.80;48.90;;;;;;1602291;74;1157;-68
2021/10/02 06:11:07;;;;;;;;;;;22.80;48.80;;;;;;1602096;73;1940;-68
2021/10/02 06:13:09;;;;;;;;;;;22.90;48.90;;;;;;1602287;72;713;-68
2021/10/02 06:15:11;;;;;;;;;;;22.80;48.70;;;;;;1602509;73;779;-67
2021/10/02 06:17:13;;;;;;;;;;;22.80;48.70;;;;;;1602348;73;670;-67
2021/10/02 06:19:17;;;;;;;;;;;22.80;48.70;;;;;;1602518;73;1200;-69
2021/10/02 06:21:19;;;;;;;;;;;22.80;48.70;;;;;;1602220;72;721;-67
2021/10/02 06:23:22;;;;;;;;;;;22.70;48.70;;;;;;1602250;73;792;-68
2021/10/02 06:25:23;;;;;;;;;;;22.80;48.60;;;;;;1598556;74;736;-67
2021/10/02 06:27:25;;;;;;;;;;;22.80;48.60;;;;;;1572441;75;725;-67
2021/10/02 06:29:27;;;;;;;;;;;22.80;48.60;;;;;;1568203;74;1134;-66
2021/10/02 06:31:29;;;;;;;;;;;22.70;48.60;;;;;;1636710;72;1935;-69
2021/10/02 06:33:31;;;;;;;;;;;22.80;48.60;;;;;;1636196;72;673;-67
2021/10/02 06:35:33;;;;;;;;;;;22.70;48.60;;;;;;1634002;72;788;-67
2021/10/02 06:37:35;;;;;;;;;;;22.70;48.60;;;;;;1636781;72;719;-68
2021/10/02 06:39:37;;;;;;;;;;;22.70;48.50;;;;;;1636923;72;1141;-68
2021/10/02 06:41:38;;;;;;;;;;;22.70;48.50;;;;;;1636955;72;723;-68
2021/10/02 06:43:40;;;;;;;;;;;22.70;48.50;;;;;;1635827;72;631;-68
2021/10/02 06:45:42;;;;;;;;;;;22.70;48.50;;;;;;1636541;72;885;-68
2021/10/02 06:47:44;;;;;;;;;;;22.70;48.50;;;;;;1630054;72;702;-68
2021/10/02 06:49:46;;;;;;;;;;;22.70;48.50;;;;;;1632954;71;1128;-69
2021/10/02 06:51:48;;;;;;;;;;;22.60;48.40;;;;;;1634555;72;1942;-67
2021/10/02 06:53:50;;;;;;;;;;;22.70;48.50;;;;;;1635058;72;789;-68
2021/10/02 06:55:52;;;;;;;;;;;22.60;48.40;;;;;;1630391;72;761;-68
2021/10/02 06:57:54;;;;;;;;;;;22.70;48.40;;;;;;1635128;72;695;-67
2021/10/02 06:59:55;;;;;;;;;;;22.70;48.50;;;;;;1601421;72;2090;-71
2021/10/02 07:01:58;;;;;;;;;;;22.60;48.40;;;;;;1566847;74;706;-71
2021/10/02 07:04:00;;;;;;;;;;;22.60;48.40;;;;;;1578166;74;722;-70
2021/10/02 07:06:01;;;;;;;;;;;22.70;48.40;;;;;;1567600;74;792;-71
2021/10/02 07:08:03;;;;;;;;;;;22.60;48.40;;;;;;1578739;74;726;-72
2021/10/02 07:10:05;;;;;;;;;;;22.70;48.40;;;;;;1570515;74;1950;-73
2021/10/02 07:12:07;;;;;;;;;;;22.60;48.40;;;;;;1564151;74;730;-69
2021/10/02 07:14:09;;;;;;;;;;;22.60;48.40;;;;;;1571127;74;697;-70
2021/10/02 07:16:11;;;;;;;;;;;22.60;48.40;;;;;;1570257;74;750;-71
2021/10/02 07:18:13;;;;;;;;;;;22.60;48.40;;;;;;1568887;74;667;-70
2021/10/02 07:20:16;;;;;;;;;;;22.60;48.30;;;;;;1568456;74;1182;-69
2021/10/02 07:22:17;;;;;;;;;;;22.60;48.30;;;;;;1566386;74;767;-71
2021/10/02 07:24:19;;;;;;;;;;;22.60;48.40;;;;;;1572918;74;707;-71
2021/10/02 07:26:21;;;;;;;;;;;22.60;48.40;;;;;;1566410;74;726;-71
2021/10/02 07:28:23;;;;;;;;;;;22.60;48.30;;;;;;1564067;74;723;-71
2021/10/02 07:30:25;;;;;;;;;;;22.60;48.40;;;;;;1569505;74;1941;-72
2021/10/02 07:32:27;;;;;;;;;;;22.60;48.30;;;;;;1568967;74;715;-71
2021/10/02 07:34:29;;;;;;;;;;;22.60;48.40;;;;;;1563652;74;755;-71
2021/10/02 07:36:31;;;;;;;;;;;22.60;48.30;;;;;;1570410;74;714;-71
2021/10/02 07:38:33;;;;;;;;;;;22.60;48.40;;;;;;1572739;74;721;-72
2021/10/02 07:40:35;;;;;;;;;;;22.60;48.40;;;;;;1569238;74;1112;-71
2021/10/02 07:42:37;;;;;;;;;;;22.60;48.40;;;;;;1572273;74;679;-71
2021/10/02 07:44:39;;;;;;;;;;;22.60;48.50;;;;;;1572372;74;714;-70
2021/10/02 07:46:42;;;;;;;;;;;22.70;48.60;;;;;;1571760;74;786;-72
2021/10/02 07:48:44;;;;;;;;;;;22.60;48.60;;;;;;1560661;74;659;-72
2021/10/02 07:50:46;;;;;;;;;;;22.80;48.80;;;;;;1552372;74;1951;-71
2021/10/02 07:52:48;;;;;;;;;;;22.80;48.80;;;;;;1563275;74;733;-71
2021/10/02 07:54:51;;;;;;;;;;;22.90;48.90;;;;;;1577083;74;740;-72
2021/10/02 07:56:54;;;;;;;;;;;23.00;48.90;;;;;;1570908;74;719;-72
2021/10/02 07:58:59;;;;;;;;;;;22.90;48.90;;;;;;1572483;74;1121;-71
2021/10/02 08:00:59;;;;;;;;;;;23.00;48.80;;;;;;1571644;74;1029;-72
2021/10/02 08:03:01;;;;;;;;;;;23.00;48.70;;;;;;1571349;74;675;-73
2021/10/02 08:05:03;;;;;;;;;;;23.10;48.70;;;;;;1576072;74;726;-74
2021/10/02 08:07:05;;;;;;;;;;;23.10;48.70;;;;;;1571829;74;763;-71
2021/10/02 08:09:06;;;;;;;;;;;23.10;48.60;;;;;;1565689;74;1147;-71
2021/10/02 08:11:08;;;;;;;;;;;23.10;48.60;;;;;;1572865;74;1950;-72
2021/10/02 08:13:15;;;;;;;;;;;23.10;48.50;;;;;;1569940;74;753;-73
2021/10/02 08:15:14;;;;;;;;;;;23.10;48.40;;;;;;1562822;74;797;-72
2021/10/02 08:17:16;;;;;;;;;;;23.10;48.30;;;;;;1565461;74;705;-72
2021/10/02 08:19:19;;;;;;;;;;;23.10;48.30;;;;;;1571128;74;1138;-72
2021/10/02 08:21:21;;;;;;;;;;;23.10;48.20;;;;;;1566812;74;738;-72
2021/10/02 08:23:23;;;;;;;;;;;23.10;48.20;;;;;;1572138;74;683;-73
2021/10/02 08:25:25;;;;;;;;;;;23.10;48.40;;;;;;1565477;74;683;-71
2021/10/02 08:27:27;;;;;;;;;;;23.20;48.50;;;;;;1569848;74;750;-71
2021/10/02 08:29:30;;;;;;;;;;;23.20;48.70;;;;;;1571130;74;1145;-72
2021/10/02 08:31:33;;;;;;;;;;;23.30;48.90;;;;;;1572666;74;1907;-73
2021/10/02 08:33:35;;;;;;;;;;;23.30;49.20;;;;;;1572362;74;757;-72
2021/10/02 08:35:37;;;;;;;;;;;23.30;49.40;;;;;;1571481;74;720;-72
2021/10/02 08:37:39;;;;;;;;;;;23.30;49.50;;;;;;1569559;74;723;-70
2021/10/02 08:39:41;;;;;;;;;;;23.30;49.80;;;;;;1576928;74;1134;-71
2021/10/02 08:41:44;;;;;;;;;;;23.30;50.00;;;;;;1575454;74;719;-71
2021/10/02 08:43:49;;;;;;;;;;;23.30;50.10;;;;;;1564194;74;815;-72
2021/10/02 08:45:51;;;;;;;;;;;23.30;50.10;;;;;;1568110;74;715;-72
2021/10/02 08:47:52;;;;;;;;;;;23.30;50.10;;;;;;1569968;74;707;-72
2021/10/02 08:49:54;;;;;;;;;;;23.30;50.00;;;;;;1578138;74;1136;-72
2021/10/02 08:51:56;;;;;;;;;;;23.30;49.80;;;;;;1569798;74;1935;-72
2021/10/02 08:53:58;;;;;;;;;;;23.40;50.00;;;;;;1572468;75;646;-72
2021/10/02 08:56:00;;;;;;;;;;;23.30;49.90;;;;;;1568579;74;765;-72
2021/10/02 08:58:03;;;;;;;;;;;23.30;49.90;;;;;;1562846;74;715;-73
2021/10/02 09:00:08;;;;;;;;;;;23.40;50.00;;;;;;1561867;74;1140;-72
2021/10/02 09:02:10;;;;;;;;;;;23.40;49.90;;;;;;1554075;74;683;-72
2021/10/02 09:04:12;;;;;;;;;;;23.40;49.70;;;;;;1552924;74;734;-70
2021/10/02 09:06:14;;;;;;;;;;;23.40;49.40;;;;;;1556374;74;885;-70
2021/10/02 09:08:16;;;;;;;;;;;23.60;49.20;;;;;;1561614;74;714;-68
2021/10/02 09:10:18;;;;;;;;;;;23.50;48.70;;;;;;1565379;74;1178;-72
2021/10/02 09:12:21;;;;;;;;;;;23.50;48.30;;;;;;1573257;74;1966;-73
2021/10/02 09:14:23;;;;;;;;;;;23.60;48.00;;;;;;1567435;74;726;-68
2021/10/02 09:16:24;;;;;;;;;;;23.60;48.00;;;;;;1554812;74;725;-73
2021/10/02 09:18:26;;;;;;;;;;;23.50;47.90;;;;;;1566437;74;719;-68
2021/10/02 09:20:28;;;;;;;;;;;23.50;47.60;;;;;;1564660;74;1072;-69
2021/10/02 09:22:30;;;;;;;;;;;23.50;47.80;;;;;;1572335;74;715;-69
2021/10/02 09:24:34;;;;;;;;;;;23.50;48.00;;;;;;1568059;74;717;-70
2021/10/02 09:26:42;;;;;;;;;;;23.50;47.70;;;;;;1570879;74;1019;-71
2021/10/02 09:28:45;;;;;;;;;;;23.60;47.70;;;;;;1568620;74;776;-71
2021/10/02 09:30:47;;;;;;;;;;;23.60;47.60;;;;;;1567401;74;1946;-69
2021/10/02 09:32:49;;;;;;;;;;;23.50;47.50;;;;;;1568439;74;675;-73
2021/10/02 09:34:55;;;;;;;;;;;23.60;47.40;;;;;;1562803;74;1130;-75
2021/10/02 09:36:57;;;;;;;;;;;23.50;47.60;;;;;;1571599;74;716;-72
2021/10/02 09:38:59;;;;;;;;;;;23.50;47.60;;;;;;1571125;74;1179;-70
2021/10/02 09:41:01;;;;;;;;;;;23.50;47.50;;;;;;1562760;74;751;-72
2021/10/02 09:43:03;;;;;;;;;;;23.50;47.60;;;;;;1560247;74;791;-71
2021/10/02 09:45:10;;;;;;;;;;;23.50;47.60;;;;;;1566240;74;738;-72
2021/10/02 09:47:15;;;;;;;;;;;23.50;47.50;;;;;;1564396;74;698;-71
2021/10/02 09:49:17;;;;;;;;;;;23.50;47.80;;;;;;1560107;74;1154;-71
2021/10/02 09:51:19;;;;;;;;;;;23.60;47.40;;;;;;1567010;74;1917;-71
2021/10/02 09:53:21;;;;;;;;;;;23.50;47.60;;;;;;1567360;74;766;-72
2021/10/02 09:55:26;;;;;;;;;;;23.60;47.00;;;;;;1568681;74;703;-72
2021/10/02 09:57:28;;;;;;;;;;;23.40;46.60;;;;;;1569495;74;762;-72
2021/10/02 09:59:30;;;;;;;;;;;23.40;47.00;;;;;;1568784;74;1148;-70
2021/10/02 10:01:32;;;;;;;;;;;23.50;47.10;;;;;;1567528;74;791;-71
2021/10/02 10:03:40;;;;;;;;;;;23.40;47.00;;;;;;1569504;74;689;-69
2021/10/02 10:05:44;;;;;;;;;;;23.50;47.10;;;;;;1566692;74;672;-69
2021/10/02 10:07:52;;;;;;;;;;;23.40;47.70;;;;;;1570752;74;695;-69
2021/10/02 10:10:11;;;;;;;;;;;23.50;47.30;;;;;;1568647;74;1241;-71
2021/10/02 10:12:12;;;;;;;;;;;23.30;47.00;;;;;;1570256;74;1918;-70
2021/10/02 10:14:19;;;;;;;;;;;23.30;46.50;;;;;;1570582;74;812;-71
2021/10/02 10:16:21;;;;;;;;;;;23.30;47.20;;;;;;1565258;74;1496;-71
2021/10/02 10:18:26;;;;;;;;;;;23.30;47.30;;;;;;1530477;77;1256;-74
2021/10/02 10:20:31;;;;;;;;;;;23.40;47.10;;;;;;1564599;74;1130;-74
2021/10/02 10:22:33;;;;;;;;;;;23.40;47.00;;;;;;1539593;75;836;-74
2021/10/02 10:24:35;;;;;;;;;;;23.40;47.10;;;;;;1542435;77;728;-73
2021/10/02 10:26:45;;;;;;;;;;;23.30;46.70;;;;;;1511953;77;722;-73
2021/10/02 10:28:43;;;;;;;;;;;23.30;46.80;;;;;;1539987;76;1105;-73
2021/10/02 10:30:47;;;;;;;;;;;23.40;46.80;;;;;;1542345;77;1123;-73
2021/10/02 10:32:56;;;;;;;;;;;23.40;46.80;;;;;;1509750;77;1911;-72
2021/10/02 10:34:58;;;;;;;;;;;23.30;46.80;;;;;;1504522;77;716;-73
2021/10/02 10:37:00;;;;;;;;;;;23.30;46.30;;;;;;1517276;77;623;-72
2021/10/02 10:39:01;;;;;;;;;;;23.30;46.80;;;;;;1508088;77;1136;-73
2021/10/02 10:41:04;;;;;;;;;;;23.30;46.70;;;;;;1501713;77;696;-72
2021/10/02 10:43:06;;;;;;;;;;;23.30;46.80;;;;;;1517186;77;565;-73
2021/10/02 10:45:08;;;;;;;;;;;23.30;46.40;;;;;;1514951;77;707;-72
2021/10/02 10:47:10;;;;;;;;;;;23.30;46.60;;;;;;1533023;75;777;-72
2021/10/02 10:49:12;;;;;;;;;;;23.40;46.50;;;;;;1513578;77;1164;-73
2021/10/02 10:51:14;;;;;;;;;;;23.30;45.80;;;;;;1542858;76;749;-73
2021/10/02 10:53:16;;;;;;;;;;;23.30;46.10;;;;;;1533241;76;751;-73
2021/10/02 10:55:19;;;;;;;;;;;23.30;46.30;;;;;;1537364;76;603;-73
2021/10/02 10:57:37;;;;;;;;;;;23.30;46.30;;;;;;1528360;76;913;-72
2021/10/02 10:59:51;;;;;;;;;;;23.30;46.10;;;;;;1508709;77;1153;-72
2021/10/02 11:01:53;;;;;;;;;;;23.40;46.10;;;;;;1513944;77;816;-72
2021/10/02 11:03:55;;;;;;;;;;;23.40;46.10;;;;;;1502813;77;610;-72
2021/10/02 11:05:57;;;;;;;;;;;23.20;44.20;;;;;;1529183;76;786;-72
2021/10/02 11:07:58;;;;;;;;;;;23.30;45.10;;;;;;1536468;76;616;-71
2021/10/02 11:10:00;;;;;;;;;;;23.20;45.00;;;;;;1540920;76;1153;-73
2021/10/02 11:12:03;;;;;;;;;;;23.30;45.60;;;;;;1536857;76;1943;-73
2021/10/02 11:14:05;;;;;;;;;;;23.20;45.10;;;;;;1527353;76;737;-74
2021/10/02 11:16:08;;;;;;;;;;;23.20;45.10;;;;;;1525734;76;755;-70
2021/10/02 11:18:12;;;;;;;;;;;23.20;43.80;;;;;;1520521;75;1060;-71
2021/10/02 11:20:21;;;;;;;;;;;23.00;44.10;;;;;;1518820;76;1145;-73
2021/10/02 11:23:00;;;;;;;;;;;23.20;45.00;;;;;;1547098;76;743;-70
2021/10/02 11:24:44;;;;;;;;;;;23.10;45.30;;;;;;1519984;76;1110;-72
2021/10/02 11:26:51;;;;;;;;;;;23.10;45.50;;;;;;1535933;76;776;-72
2021/10/02 11:29:01;;;;;;;;;;;23.10;45.30;;;;;;1542997;76;1131;-73
2021/10/02 11:31:02;;;;;;;;;;;23.10;44.40;;;;;;1527075;76;781;-73
2021/10/02 11:33:06;;;;;;;;;;;23.10;45.10;;;;;;1510958;77;1945;-72
2021/10/02 11:35:15;;;;;;;;;;;23.20;44.90;;;;;;1540401;76;1589;-74
2021/10/02 11:37:17;;;;;;;;;;;23.20;44.80;;;;;;1541804;76;680;-72
2021/10/02 11:39:22;;;;;;;;;;;23.20;44.80;;;;;;1527509;76;1170;-73
2021/10/02 11:41:24;;;;;;;;;;;23.30;45.10;;;;;;1525504;76;721;-72
2021/10/02 11:43:26;;;;;;;;;;;23.20;45.20;;;;;;1537343;76;658;-72
2021/10/02 11:45:29;;;;;;;;;;;23.30;44.70;;;;;;1506868;77;706;-72
2021/10/02 11:47:35;;;;;;;;;;;23.20;44.90;;;;;;1510734;77;1625;-73
2021/10/02 11:49:37;;;;;;;;;;;23.20;44.80;;;;;;1538437;76;1139;-72
2021/10/02 11:51:39;;;;;;;;;;;23.20;44.70;;;;;;1511437;77;1936;-73
2021/10/02 11:53:42;;;;;;;;;;;23.10;43.60;;;;;;1531331;76;743;-71
2021/10/02 11:55:44;;;;;;;;;;;23.10;43.80;;;;;;1515438;76;825;-71
2021/10/02 11:58:04;;;;;;;;;;;23.00;43.10;;;;;;1507728;77;722;-70
2021/10/02 12:00:06;;;;;;;;;;;23.10;44.20;;;;;;1502224;77;1122;-71
2021/10/02 12:02:09;;;;;;;;;;;23.10;44.20;;;;;;1501110;77;810;-72
2021/10/02 12:04:14;;;;;;;;;;;23.00;43.60;;;;;;1503805;77;698;-72
2021/10/02 12:06:17;;;;;;;;;;;22.90;43.90;;;;;;1508944;77;690;-70
2021/10/02 12:08:19;;;;;;;;;;;22.90;43.60;;;;;;1511232;77;725;-71
2021/10/02 12:10:21;;;;;;;;;;;22.80;43.40;;;;;;1531981;76;1114;-71
2021/10/02 12:12:23;;;;;;;;;;;22.90;44.50;;;;;;1516123;77;1953;-71
2021/10/02 12:14:26;;;;;;;;;;;22.80;43.70;;;;;;1513741;77;733;-70
2021/10/02 12:16:29;;;;;;;;;;;22.70;43.70;;;;;;1507150;78;723;-71
2021/10/02 12:18:49;;;;;;;;;;;22.80;44.30;;;;;;1512121;77;710;-72
2021/10/02 12:20:51;;;;;;;;;;;22.90;44.00;;;;;;1530624;76;647;-71
2021/10/02 12:22:54;;;;;;;;;;;23.00;44.20;;;;;;1534657;76;657;-70
2021/10/02 12:24:57;;;;;;;;;;;23.00;44.10;;;;;;1529760;76;1110;-70
2021/10/02 12:26:59;;;;;;;;;;;23.00;43.80;;;;;;1531646;76;719;-70
2021/10/02 12:29:02;;;;;;;;;;;23.00;44.10;;;;;;1527214;76;1142;-70
2021/10/02 12:31:04;;;;;;;;;;;22.90;43.90;;;;;;1534501;76;736;-70
2021/10/02 12:33:06;;;;;;;;;;;23.00;43.90;;;;;;1532750;76;1939;-70
2021/10/02 12:35:08;;;;;;;;;;;23.00;43.90;;;;;;1538522;76;712;-71
2021/10/02 12:37:11;;;;;;;;;;;23.00;43.40;;;;;;1572232;74;735;-69
2021/10/02 12:39:13;;;;;;;;;;;23.00;43.70;;;;;;1565077;74;1136;-69
2021/10/02 12:41:15;;;;;;;;;;;23.00;43.60;;;;;;1560629;74;742;-69
2021/10/02 12:43:17;;;;;;;;;;;23.00;43.80;;;;;;1567149;74;708;-69
2021/10/02 12:45:23;;;;;;;;;;;23.10;44.00;;;;;;1563783;74;688;-70
2021/10/02 12:47:25;;;;;;;;;;;23.10;43.90;;;;;;1572607;74;694;-71
2021/10/02 12:49:27;;;;;;;;;;;23.10;44.00;;;;;;1571574;74;1134;-70
2021/10/02 12:51:29;;;;;;;;;;;23.10;43.80;;;;;;1571400;74;684;-70
2021/10/02 12:53:31;;;;;;;;;;;23.10;44.00;;;;;;1570091;74;1930;-71
2021/10/02 12:55:33;;;;;;;;;;;23.10;43.70;;;;;;1569236;74;808;-69
2021/10/02 12:57:35;;;;;;;;;;;23.10;43.90;;;;;;1566330;74;722;-69
2021/10/02 12:59:37;;;;;;;;;;;23.10;43.30;;;;;;1581134;70;230084;-70
2021/10/02 13:01:46;;;;;;;;;;;23.00;43.60;;;;;;1613169;71;219532;-60
2021/10/02 13:03:49;;;;;;;;;;;23.10;43.80;;;;;;1608297;72;1204;-59
2021/10/02 13:05:52;;;;;;;;;;;23.10;43.60;;;;;;1608495;73;719;-58
2021/10/02 13:07:54;;;;;;;;;;;23.00;43.10;;;;;;1607668;72;1146;-60